Coosawatchie, South Carolina
Current Conditions -  °F | °C
As of 10:56 AM on Wednesday 26 Nov 2014 (Local Time) from KNBC Reporting Station
Overcast Overcast  
Wind Chill: 53°   Ceiling: 6000
Heat Index: 53°   Visibility: 10mi
Dew Point: 50°   Wind: 9mph
Humidity: 89%   Direction: 270°W
Pressure: 30.04"   Gusts: NA
Location:  32.4889°N, 80.9891°W
Report Text: KNBC 261556Z 27008KT 10SM SCT012 BKN060 OVC080 12/10 A3004 RMK AO2 RAE33 SLP173 P0000 T01170100
Loading
Personal Weather Stations






























Interactive Weather Map New forecast layout! Learn more

10-Day Weather Forecast

Advertisements
Track Severe Weather on mobile